KRKP/RKP METAR and TAF weather

Enter ICAO airport designator
Station Type Date Time Source
KRKP METAR 2022/01/29 12:53 UTC NOAA

KRKP 291253Z AUTO 30006KT 10SM CLR 04/02 A3046 RMK AO2 SLP316 T00390017


Station Type Date Time Source
KRKP Decoded METAR 2022/01/29 12:53 UTC NOAA

ROCKPORT ARANSAS COUNTY AIRPORT , TX, United States (KRKP) 28-05N 97-03W 6M
Jan 29, 2022 - 07:53 AM EST / 2022.01.29 1253 UTC
Wind: from the WNW (300 degrees) at 7 MPH (6 KT):0
Visibility: 10 mile(s):0
Sky conditions: clear
Temperature: 39.0 F (3.9 C)
Dew Point: 35.1 F (1.7 C)
Relative Humidity: 85%
Pressure (altimeter): 30.46 in. Hg (1031 hPa)
ob: KRKP 291253Z AUTO 30006KT 10SM CLR 04/02 A3046 RMK AO2 SLP316 T00390017
cycle: 13

Station Type Date Time Source
KRKP TAF UTC NOAA

Error!

Example: see airport list